sensor_id;sensor_type;location;lat;lon;timestamp;P1;durP1;ratioP1;P2;durP2;ratioP2
31442;SDS011;18065;55.876;9.830;2022-11-21T00:01:32;4.07;;;2.47;;
31442;SDS011;18065;55.876;9.830;2022-11-21T00:04:01;3.78;;;2.50;;
31442;SDS011;18065;55.876;9.830;2022-11-21T00:06:30;3.30;;;2.20;;
31442;SDS011;18065;55.876;9.830;2022-11-21T00:09:01;4.50;;;2.50;;
31442;SDS011;18065;55.876;9.830;2022-11-21T00:11:30;2.50;;;2.20;;
31442;SDS011;18065;55.876;9.830;2022-11-21T00:13:59;3.95;;;2.40;;
31442;SDS011;18065;55.876;9.830;2022-11-21T00:16:27;3.03;;;2.03;;
31442;SDS011;18065;55.876;9.830;2022-11-21T00:18:56;2.85;;;2.22;;
31442;SDS011;18065;55.876;9.830;2022-11-21T00:21:25;2.88;;;2.22;;
31442;SDS011;18065;55.876;9.830;2022-11-21T00:23:53;2.50;;;1.95;;
31442;SDS011;18065;55.876;9.830;2022-11-21T00:26:25;2.67;;;1.90;;
31442;SDS011;18065;55.876;9.830;2022-11-21T00:28:53;3.40;;;2.60;;
31442;SDS011;18065;55.876;9.830;2022-11-21T00:31:22;3.00;;;2.55;;
31442;SDS011;18065;55.876;9.830;2022-11-21T00:33:51;4.53;;;2.45;;
31442;SDS011;18065;55.876;9.830;2022-11-21T00:36:19;2.55;;;2.17;;
31442;SDS011;18065;55.876;9.830;2022-11-21T00:38:48;3.92;;;2.20;;
31442;SDS011;18065;55.876;9.830;2022-11-21T00:41:17;2.88;;;2.20;;
31442;SDS011;18065;55.876;9.830;2022-11-21T00:43:48;2.70;;;2.30;;
31442;SDS011;18065;55.876;9.830;2022-11-21T00:46:16;2.97;;;1.98;;
31442;SDS011;18065;55.876;9.830;2022-11-21T00:48:45;4.13;;;2.13;;
31442;SDS011;18065;55.876;9.830;2022-11-21T00:51:14;3.40;;;2.05;;
31442;SDS011;18065;55.876;9.830;2022-11-21T00:53:42;3.78;;;2.20;;
31442;SDS011;18065;55.876;9.830;2022-11-21T00:56:11;3.15;;;2.17;;
31442;SDS011;18065;55.876;9.830;2022-11-21T00:58:41;3.65;;;1.80;;
31442;SDS011;18065;55.876;9.830;2022-11-21T01:01:12;5.28;;;2.42;;
31442;SDS011;18065;55.876;9.830;2022-11-21T01:03:42;2.75;;;2.10;;
31442;SDS011;18065;55.876;9.830;2022-11-21T01:06:12;2.97;;;2.33;;
31442;SDS011;18065;55.876;9.830;2022-11-21T01:08:42;2.40;;;1.90;;
31442;SDS011;18065;55.876;9.830;2022-11-21T01:11:12;4.85;;;2.30;;
31442;SDS011;18065;55.876;9.830;2022-11-21T01:13:41;4.45;;;2.00;;
31442;SDS011;18065;55.876;9.830;2022-11-21T01:16:13;3.40;;;1.98;;
31442;SDS011;18065;55.876;9.830;2022-11-21T01:18:44;2.17;;;1.98;;
31442;SDS011;18065;55.876;9.830;2022-11-21T01:21:13;3.13;;;2.28;;
31442;SDS011;18065;55.876;9.830;2022-11-21T01:23:43;2.22;;;1.83;;
31442;SDS011;18065;55.876;9.830;2022-11-21T01:26:13;3.13;;;2.10;;
31442;SDS011;18065;55.876;9.830;2022-11-21T01:28:43;2.58;;;1.83;;
31442;SDS011;18065;55.876;9.830;2022-11-21T01:31:15;2.95;;;1.90;;
31442;SDS011;18065;55.876;9.830;2022-11-21T01:33:45;3.40;;;1.77;;
31442;SDS011;18065;55.876;9.830;2022-11-21T01:36:15;4.70;;;2.10;;
31442;SDS011;18065;55.876;9.830;2022-11-21T01:38:46;3.85;;;2.13;;
31442;SDS011;18065;55.876;9.830;2022-11-21T01:41:17;3.22;;;1.98;;
31442;SDS011;18065;55.876;9.830;2022-11-21T01:43:47;2.30;;;1.73;;
31442;SDS011;18065;55.876;9.830;2022-11-21T01:46:18;2.90;;;1.75;;
31442;SDS011;18065;55.876;9.830;2022-11-21T01:48:49;2.35;;;1.85;;
31442;SDS011;18065;55.876;9.830;2022-11-21T01:51:23;2.70;;;1.92;;
31442;SDS011;18065;55.876;9.830;2022-11-21T01:53:56;2.42;;;1.83;;
31442;SDS011;18065;55.876;9.830;2022-11-21T01:56:28;2.22;;;1.98;;
31442;SDS011;18065;55.876;9.830;2022-11-21T01:59:00;3.17;;;1.85;;
31442;SDS011;18065;55.876;9.830;2022-11-21T02:01:35;2.95;;;1.83;;
31442;SDS011;18065;55.876;9.830;2022-11-21T02:04:05;3.83;;;1.95;;
31442;SDS011;18065;55.876;9.830;2022-11-21T02:06:34;4.20;;;1.88;;
31442;SDS011;18065;55.876;9.830;2022-11-21T02:09:04;2.83;;;1.65;;
31442;SDS011;18065;55.876;9.830;2022-11-21T02:11:34;2.55;;;1.80;;
31442;SDS011;18065;55.876;9.830;2022-11-21T02:14:06;4.20;;;1.65;;
31442;SDS011;18065;55.876;9.830;2022-11-21T02:16:39;2.88;;;1.90;;
31442;SDS011;18065;55.876;9.830;2022-11-21T02:19:08;2.90;;;1.80;;
31442;SDS011;18065;55.876;9.830;2022-11-21T02:21:41;2.25;;;1.73;;
31442;SDS011;18065;55.876;9.830;2022-11-21T02:24:16;2.28;;;1.55;;
31442;SDS011;18065;55.876;9.830;2022-11-21T02:26:54;2.58;;;1.88;;
31442;SDS011;18065;55.876;9.830;2022-11-21T02:29:23;3.28;;;1.70;;
31442;SDS011;18065;55.876;9.830;2022-11-21T02:31:51;2.53;;;1.67;;
31442;SDS011;18065;55.876;9.830;2022-11-21T02:34:20;2.58;;;1.55;;
31442;SDS011;18065;55.876;9.830;2022-11-21T02:36:49;2.15;;;1.33;;
31442;SDS011;18065;55.876;9.830;2022-11-21T02:39:18;2.00;;;1.58;;
31442;SDS011;18065;55.876;9.830;2022-11-21T02:41:55;1.83;;;1.60;;
31442;SDS011;18065;55.876;9.830;2022-11-21T02:44:30;1.65;;;1.30;;
31442;SDS011;18065;55.876;9.830;2022-11-21T02:47:05;5.32;;;1.90;;
31442;SDS011;18065;55.876;9.830;2022-11-21T02:49:37;1.70;;;1.50;;
31442;SDS011;18065;55.876;9.830;2022-11-21T02:52:10;2.38;;;1.83;;
31442;SDS011;18065;55.876;9.830;2022-11-21T02:54:38;2.03;;;1.55;;
31442;SDS011;18065;55.876;9.830;2022-11-21T02:57:09;2.42;;;1.70;;
31442;SDS011;18065;55.876;9.830;2022-11-21T02:59:38;1.95;;;1.52;;
31442;SDS011;18065;55.876;9.830;2022-11-21T03:02:07;1.83;;;1.42;;
31442;SDS011;18065;55.876;9.830;2022-11-21T03:04:35;3.13;;;1.80;;
31442;SDS011;18065;55.876;9.830;2022-11-21T03:07:04;1.98;;;1.55;;
31442;SDS011;18065;55.876;9.830;2022-11-21T03:09:33;2.47;;;1.48;;
31442;SDS011;18065;55.876;9.830;2022-11-21T03:12:04;2.47;;;1.73;;
31442;SDS011;18065;55.876;9.830;2022-11-21T03:14:36;1.83;;;1.60;;
31442;SDS011;18065;55.876;9.830;2022-11-21T03:17:05;2.42;;;1.50;;
31442;SDS011;18065;55.876;9.830;2022-11-21T03:19:33;1.98;;;1.50;;
31442;SDS011;18065;55.876;9.830;2022-11-21T03:22:02;3.10;;;1.60;;
31442;SDS011;18065;55.876;9.830;2022-11-21T03:24:31;3.42;;;1.40;;
31442;SDS011;18065;55.876;9.830;2022-11-21T03:27:00;1.90;;;1.60;;
31442;SDS011;18065;55.876;9.830;2022-11-21T03:29:28;1.80;;;1.60;;
31442;SDS011;18065;55.876;9.830;2022-11-21T03:31:59;1.45;;;1.35;;
31442;SDS011;18065;55.876;9.830;2022-11-21T03:34:28;2.17;;;1.48;;
31442;SDS011;18065;55.876;9.830;2022-11-21T03:36:57;1.80;;;1.00;;
31442;SDS011;18065;55.876;9.830;2022-11-21T03:39:26;2.53;;;1.73;;
31442;SDS011;18065;55.876;9.830;2022-11-21T03:41:54;2.67;;;1.60;;
31442;SDS011;18065;55.876;9.830;2022-11-21T03:44:23;2.28;;;1.35;;
31442;SDS011;18065;55.876;9.830;2022-11-21T03:46:51;1.55;;;1.35;;
31442;SDS011;18065;55.876;9.830;2022-11-21T03:49:23;1.83;;;1.33;;
31442;SDS011;18065;55.876;9.830;2022-11-21T03:51:51;2.10;;;1.42;;
31442;SDS011;18065;55.876;9.830;2022-11-21T03:54:20;2.13;;;1.20;;
31442;SDS011;18065;55.876;9.830;2022-11-21T03:56:49;1.42;;;1.20;;
31442;SDS011;18065;55.876;9.830;2022-11-21T03:59:17;2.55;;;1.27;;
31442;SDS011;18065;55.876;9.830;2022-11-21T04:01:46;2.65;;;1.30;;
31442;SDS011;18065;55.876;9.830;2022-11-21T04:04:15;1.92;;;1.20;;
31442;SDS011;18065;55.876;9.830;2022-11-21T04:06:46;1.77;;;1.35;;
31442;SDS011;18065;55.876;9.830;2022-11-21T04:09:15;2.05;;;1.30;;
31442;SDS011;18065;55.876;9.830;2022-11-21T04:11:43;3.83;;;1.50;;
31442;SDS011;18065;55.876;9.830;2022-11-21T04:14:12;1.60;;;1.25;;
31442;SDS011;18065;55.876;9.830;2022-11-21T04:16:41;1.73;;;1.30;;
31442;SDS011;18065;55.876;9.830;2022-11-21T04:19:09;2.50;;;1.45;;
31442;SDS011;18065;55.876;9.830;2022-11-21T04:21:38;1.92;;;1.48;;
31442;SDS011;18065;55.876;9.830;2022-11-21T04:24:09;1.83;;;1.17;;
31442;SDS011;18065;55.876;9.830;2022-11-21T04:26:38;3.67;;;1.40;;
31442;SDS011;18065;55.876;9.830;2022-11-21T04:29:07;1.67;;;1.30;;
31442;SDS011;18065;55.876;9.830;2022-11-21T04:31:35;1.27;;;1.15;;
31442;SDS011;18065;55.876;9.830;2022-11-21T04:34:04;2.22;;;1.42;;
31442;SDS011;18065;55.876;9.830;2022-11-21T04:36:33;1.92;;;1.38;;
31442;SDS011;18065;55.876;9.830;2022-11-21T04:39:02;1.75;;;1.15;;
31442;SDS011;18065;55.876;9.830;2022-11-21T04:41:33;2.53;;;1.40;;
31442;SDS011;18065;55.876;9.830;2022-11-21T04:44:02;1.60;;;1.20;;
31442;SDS011;18065;55.876;9.830;2022-11-21T04:46:31;2.85;;;1.10;;
31442;SDS011;18065;55.876;9.830;2022-11-21T04:49:00;1.33;;;1.10;;
31442;SDS011;18065;55.876;9.830;2022-11-21T04:51:29;1.85;;;1.30;;
31442;SDS011;18065;55.876;9.830;2022-11-21T04:53:57;1.25;;;0.95;;
31442;SDS011;18065;55.876;9.830;2022-11-21T04:56:26;1.52;;;1.10;;
31442;SDS011;18065;55.876;9.830;2022-11-21T04:58:57;1.50;;;1.27;;
31442;SDS011;18065;55.876;9.830;2022-11-21T05:01:26;3.08;;;1.20;;
31442;SDS011;18065;55.876;9.830;2022-11-21T05:03:54;1.35;;;1.10;;
31442;SDS011;18065;55.876;9.830;2022-11-21T05:06:23;1.65;;;1.10;;
31442;SDS011;18065;55.876;9.830;2022-11-21T05:08:52;1.10;;;0.88;;
31442;SDS011;18065;55.876;9.830;2022-11-21T05:11:20;2.58;;;1.20;;
31442;SDS011;18065;55.876;9.830;2022-11-21T05:14:04;1.40;;;1.25;;
31442;SDS011;18065;55.876;9.830;2022-11-21T05:16:33;1.25;;;0.90;;
31442;SDS011;18065;55.876;9.830;2022-11-21T05:19:02;1.25;;;1.15;;
31442;SDS011;18065;55.876;9.830;2022-11-21T05:21:31;1.58;;;1.08;;
31442;SDS011;18065;55.876;9.830;2022-11-21T05:24:00;3.00;;;1.20;;
31442;SDS011;18065;55.876;9.830;2022-11-21T05:26:29;1.33;;;1.00;;
31442;SDS011;18065;55.876;9.830;2022-11-21T05:28:57;1.27;;;1.10;;
31442;SDS011;18065;55.876;9.830;2022-11-21T05:31:29;1.90;;;1.10;;
31442;SDS011;18065;55.876;9.830;2022-11-21T05:33:58;1.27;;;1.00;;
31442;SDS011;18065;55.876;9.830;2022-11-21T05:36:26;1.55;;;1.00;;
31442;SDS011;18065;55.876;9.830;2022-11-21T05:38:55;2.45;;;1.15;;
31442;SDS011;18065;55.876;9.830;2022-11-21T05:41:24;1.42;;;1.20;;
31442;SDS011;18065;55.876;9.830;2022-11-21T05:43:52;1.30;;;1.05;;
31442;SDS011;18065;55.876;9.830;2022-11-21T05:46:19;1.25;;;0.95;;
31442;SDS011;18065;55.876;9.830;2022-11-21T05:48:52;2.13;;;1.23;;
31442;SDS011;18065;55.876;9.830;2022-11-21T05:51:21;1.60;;;1.00;;
31442;SDS011;18065;55.876;9.830;2022-11-21T05:53:50;3.42;;;0.90;;
31442;SDS011;18065;55.876;9.830;2022-11-21T05:56:19;1.50;;;1.10;;
31442;SDS011;18065;55.876;9.830;2022-11-21T05:58:48;1.02;;;0.93;;
31442;SDS011;18065;55.876;9.830;2022-11-21T06:01:16;2.20;;;0.88;;
31442;SDS011;18065;55.876;9.830;2022-11-21T06:04:08;1.63;;;1.02;;
31442;SDS011;18065;55.876;9.830;2022-11-21T06:06:35;1.20;;;1.10;;
31442;SDS011;18065;55.876;9.830;2022-11-21T06:09:06;3.38;;;1.10;;
31442;SDS011;18065;55.876;9.830;2022-11-21T06:11:34;1.95;;;1.10;;
31442;SDS011;18065;55.876;9.830;2022-11-21T06:14:03;2.97;;;1.27;;
31442;SDS011;18065;55.876;9.830;2022-11-21T06:16:32;1.48;;;0.85;;
31442;SDS011;18065;55.876;9.830;2022-11-21T06:19:00;1.38;;;1.27;;
31442;SDS011;18065;55.876;9.830;2022-11-21T06:21:32;1.33;;;0.98;;
31442;SDS011;18065;55.876;9.830;2022-11-21T06:24:01;4.47;;;1.05;;
31442;SDS011;18065;55.876;9.830;2022-11-21T06:26:30;2.17;;;1.15;;
31442;SDS011;18065;55.876;9.830;2022-11-21T06:28:59;1.70;;;1.05;;
31442;SDS011;18065;55.876;9.830;2022-11-21T06:31:27;3.00;;;1.02;;
31442;SDS011;18065;55.876;9.830;2022-11-21T06:33:57;1.15;;;0.90;;
31442;SDS011;18065;55.876;9.830;2022-11-21T06:36:26;2.38;;;1.25;;
31442;SDS011;18065;55.876;9.830;2022-11-21T06:38:57;1.75;;;1.00;;
31442;SDS011;18065;55.876;9.830;2022-11-21T06:41:26;1.30;;;0.90;;
31442;SDS011;18065;55.876;9.830;2022-11-21T06:43:57;1.85;;;1.23;;
31442;SDS011;18065;55.876;9.830;2022-11-21T06:46:27;1.40;;;0.90;;
31442;SDS011;18065;55.876;9.830;2022-11-21T06:48:56;1.15;;;0.80;;
31442;SDS011;18065;55.876;9.830;2022-11-21T06:51:24;1.25;;;0.90;;
31442;SDS011;18065;55.876;9.830;2022-11-21T06:53:53;1.08;;;0.80;;
31442;SDS011;18065;55.876;9.830;2022-11-21T06:56:26;1.13;;;0.90;;
31442;SDS011;18065;55.876;9.830;2022-11-21T06:58:57;1.70;;;1.00;;
31442;SDS011;18065;55.876;9.830;2022-11-21T07:01:25;2.05;;;0.98;;
31442;SDS011;18065;55.876;9.830;2022-11-21T07:03:54;1.40;;;0.95;;
31442;SDS011;18065;55.876;9.830;2022-11-21T07:06:23;2.05;;;0.85;;
31442;SDS011;18065;55.876;9.830;2022-11-21T07:08:52;1.10;;;0.95;;
31442;SDS011;18065;55.876;9.830;2022-11-21T07:11:23;1.65;;;1.10;;
31442;SDS011;18065;55.876;9.830;2022-11-21T07:13:52;1.17;;;0.73;;
31442;SDS011;18065;55.876;9.830;2022-11-21T07:16:19;3.33;;;1.20;;
31442;SDS011;18065;55.876;9.830;2022-11-21T07:18:50;1.80;;;1.00;;
31442;SDS011;18065;55.876;9.830;2022-11-21T07:21:18;1.95;;;1.00;;
31442;SDS011;18065;55.876;9.830;2022-11-21T07:23:47;1.52;;;1.08;;
31442;SDS011;18065;55.876;9.830;2022-11-21T07:26:16;1.10;;;0.85;;
31442;SDS011;18065;55.876;9.830;2022-11-21T07:28:47;1.40;;;0.85;;
31442;SDS011;18065;55.876;9.830;2022-11-21T07:31:16;0.82;;;0.77;;
31442;SDS011;18065;55.876;9.830;2022-11-21T07:33:45;1.98;;;1.00;;
31442;SDS011;18065;55.876;9.830;2022-11-21T07:36:13;1.20;;;1.10;;
31442;SDS011;18065;55.876;9.830;2022-11-21T07:38:44;1.70;;;0.90;;
31442;SDS011;18065;55.876;9.830;2022-11-21T07:41:13;1.02;;;0.82;;
31442;SDS011;18065;55.876;9.830;2022-11-21T07:43:41;1.38;;;0.90;;
31442;SDS011;18065;55.876;9.830;2022-11-21T07:46:13;1.90;;;0.90;;
31442;SDS011;18065;55.876;9.830;2022-11-21T07:48:41;3.65;;;1.00;;
31442;SDS011;18065;55.876;9.830;2022-11-21T07:51:10;2.33;;;1.02;;
31442;SDS011;18065;55.876;9.830;2022-11-21T07:53:39;1.60;;;1.00;;
31442;SDS011;18065;55.876;9.830;2022-11-21T07:56:07;0.98;;;0.82;;
31442;SDS011;18065;55.876;9.830;2022-11-21T07:58:36;0.65;;;0.65;;
31442;SDS011;18065;55.876;9.830;2022-11-21T08:01:05;2.00;;;0.93;;
31442;SDS011;18065;55.876;9.830;2022-11-21T08:03:37;1.65;;;0.95;;
31442;SDS011;18065;55.876;9.830;2022-11-21T08:06:05;1.30;;;0.93;;
31442;SDS011;18065;55.876;9.830;2022-11-21T08:08:34;1.98;;;0.80;;
31442;SDS011;18065;55.876;9.830;2022-11-21T08:11:03;1.48;;;0.82;;
31442;SDS011;18065;55.876;9.830;2022-11-21T08:13:32;1.02;;;0.90;;
31442;SDS011;18065;55.876;9.830;2022-11-21T08:16:02;1.88;;;1.00;;
31442;SDS011;18065;55.876;9.830;2022-11-21T08:18:30;1.85;;;0.80;;
31442;SDS011;18065;55.876;9.830;2022-11-21T08:21:03;2.95;;;0.90;;
31442;SDS011;18065;55.876;9.830;2022-11-21T08:23:32;1.25;;;0.68;;
31442;SDS011;18065;55.876;9.830;2022-11-21T08:26:00;1.88;;;0.80;;
31442;SDS011;18065;55.876;9.830;2022-11-21T08:28:29;2.03;;;1.00;;
31442;SDS011;18065;55.876;9.830;2022-11-21T08:30:57;1.27;;;0.80;;
31442;SDS011;18065;55.876;9.830;2022-11-21T08:33:29;1.80;;;0.80;;
31442;SDS011;18065;55.876;9.830;2022-11-21T08:36:01;1.95;;;0.82;;
31442;SDS011;18065;55.876;9.830;2022-11-21T08:38:34;1.83;;;0.80;;
31442;SDS011;18065;55.876;9.830;2022-11-21T08:41:02;1.45;;;1.00;;
31442;SDS011;18065;55.876;9.830;2022-11-21T08:43:43;1.35;;;0.70;;
31442;SDS011;18065;55.876;9.830;2022-11-21T08:46:12;1.10;;;0.50;;
31442;SDS011;18065;55.876;9.830;2022-11-21T08:48:42;1.27;;;0.80;;
31442;SDS011;18065;55.876;9.830;2022-11-21T08:51:13;1.17;;;0.70;;
31442;SDS011;18065;55.876;9.830;2022-11-21T08:53:42;1.35;;;0.65;;
31442;SDS011;18065;55.876;9.830;2022-11-21T08:56:10;0.73;;;0.70;;
31442;SDS011;18065;55.876;9.830;2022-11-21T08:58:39;2.15;;;1.02;;
31442;SDS011;18065;55.876;9.830;2022-11-21T09:01:08;1.45;;;0.80;;
31442;SDS011;18065;55.876;9.830;2022-11-21T09:03:36;1.25;;;0.70;;
31442;SDS011;18065;55.876;9.830;2022-11-21T09:06:05;2.55;;;0.80;;
31442;SDS011;18065;55.876;9.830;2022-11-21T09:08:36;1.73;;;0.82;;
31442;SDS011;18065;55.876;9.830;2022-11-21T09:11:05;1.15;;;0.60;;
31442;SDS011;18065;55.876;9.830;2022-11-21T09:13:35;1.63;;;0.80;;
31442;SDS011;18065;55.876;9.830;2022-11-21T09:16:04;1.30;;;0.90;;
31442;SDS011;18065;55.876;9.830;2022-11-21T09:18:45;1.45;;;0.70;;
31442;SDS011;18065;55.876;9.830;2022-11-21T09:21:14;0.77;;;0.70;;
31442;SDS011;18065;55.876;9.830;2022-11-21T09:23:45;0.70;;;0.70;;
31442;SDS011;18065;55.876;9.830;2022-11-21T09:26:14;0.93;;;0.60;;
31442;SDS011;18065;55.876;9.830;2022-11-21T09:28:43;0.57;;;0.57;;
31442;SDS011;18065;55.876;9.830;2022-11-21T09:31:11;1.58;;;0.63;;
31442;SDS011;18065;55.876;9.830;2022-11-21T09:33:40;1.15;;;0.63;;
31442;SDS011;18065;55.876;9.830;2022-11-21T09:36:08;0.98;;;0.80;;
31442;SDS011;18065;55.876;9.830;2022-11-21T09:38:37;1.02;;;0.60;;
31442;SDS011;18065;55.876;9.830;2022-11-21T09:41:14;1.60;;;0.82;;
31442;SDS011;18065;55.876;9.830;2022-11-21T09:44:00;0.98;;;0.80;;
31442;SDS011;18065;55.876;9.830;2022-11-21T09:46:38;1.60;;;0.85;;
31442;SDS011;18065;55.876;9.830;2022-11-21T09:49:12;0.80;;;0.70;;
31442;SDS011;18065;55.876;9.830;2022-11-21T09:51:42;1.05;;;0.65;;
31442;SDS011;18065;55.876;9.830;2022-11-21T09:54:14;1.35;;;0.70;;
31442;SDS011;18065;55.876;9.830;2022-11-21T09:56:48;1.60;;;0.80;;
31442;SDS011;18065;55.876;9.830;2022-11-21T09:59:23;1.10;;;0.75;;
31442;SDS011;18065;55.876;9.830;2022-11-21T10:01:57;0.85;;;0.60;;
31442;SDS011;18065;55.876;9.830;2022-11-21T10:04:26;0.55;;;0.55;;
31442;SDS011;18065;55.876;9.830;2022-11-21T10:06:57;1.88;;;0.60;;
31442;SDS011;18065;55.876;9.830;2022-11-21T10:09:33;1.20;;;0.80;;
31442;SDS011;18065;55.876;9.830;2022-11-21T10:12:13;0.65;;;0.65;;
31442;SDS011;18065;55.876;9.830;2022-11-21T10:15:14;1.40;;;0.70;;
31442;SDS011;18065;55.876;9.830;2022-11-21T10:17:54;0.75;;;0.50;;
31442;SDS011;18065;55.876;9.830;2022-11-21T10:20:36;0.50;;;0.50;;
31442;SDS011;18065;55.876;9.830;2022-11-21T10:23:22;0.85;;;0.63;;
31442;SDS011;18065;55.876;9.830;2022-11-21T10:26:07;1.08;;;0.60;;
31442;SDS011;18065;55.876;9.830;2022-11-21T10:28:49;1.05;;;0.77;;
31442;SDS011;18065;55.876;9.830;2022-11-21T10:31:19;1.55;;;0.95;;
31442;SDS011;18065;55.876;9.830;2022-11-21T10:33:49;0.77;;;0.55;;
31442;SDS011;18065;55.876;9.830;2022-11-21T10:36:23;1.17;;;0.65;;
31442;SDS011;18065;55.876;9.830;2022-11-21T10:38:55;1.42;;;0.63;;
31442;SDS011;18065;55.876;9.830;2022-11-21T10:44:07;0.73;;;0.68;;
31442;SDS011;18065;55.876;9.830;2022-11-21T10:46:54;0.98;;;0.60;;
31442;SDS011;18065;55.876;9.830;2022-11-21T10:49:23;0.80;;;0.57;;
31442;SDS011;18065;55.876;9.830;2022-11-21T10:51:55;1.90;;;0.70;;
31442;SDS011;18065;55.876;9.830;2022-11-21T10:54:28;1.20;;;0.73;;
31442;SDS011;18065;55.876;9.830;2022-11-21T10:57:05;0.60;;;0.50;;
31442;SDS011;18065;55.876;9.830;2022-11-21T10:59:41;0.50;;;0.50;;
31442;SDS011;18065;55.876;9.830;2022-11-21T11:02:26;1.17;;;0.68;;
31442;SDS011;18065;55.876;9.830;2022-11-21T11:07:57;0.73;;;0.70;;
31442;SDS011;18065;55.876;9.830;2022-11-21T11:10:27;0.95;;;0.60;;
31442;SDS011;18065;55.876;9.830;2022-11-21T11:12:56;0.60;;;0.60;;
31442;SDS011;18065;55.876;9.830;2022-11-21T11:15:51;0.98;;;0.57;;
31442;SDS011;18065;55.876;9.830;2022-11-21T11:18:22;1.48;;;0.60;;
31442;SDS011;18065;55.876;9.830;2022-11-21T11:20:51;0.95;;;0.65;;
31442;SDS011;18065;55.876;9.830;2022-11-21T11:23:24;0.82;;;0.60;;
31442;SDS011;18065;55.876;9.830;2022-11-21T11:25:54;0.60;;;0.60;;
31442;SDS011;18065;55.876;9.830;2022-11-21T11:28:24;0.70;;;0.57;;
31442;SDS011;18065;55.876;9.830;2022-11-21T11:30:56;0.80;;;0.50;;
31442;SDS011;18065;55.876;9.830;2022-11-21T11:33:32;0.70;;;0.70;;
31442;SDS011;18065;55.876;9.830;2022-11-21T11:36:12;0.90;;;0.70;;
31442;SDS011;18065;55.876;9.830;2022-11-21T11:38:43;0.52;;;0.52;;
31442;SDS011;18065;55.876;9.830;2022-11-21T11:43:52;0.90;;;0.60;;
31442;SDS011;18065;55.876;9.830;2022-11-21T11:46:44;1.40;;;0.60;;
31442;SDS011;18065;55.876;9.830;2022-11-21T11:49:35;1.15;;;0.57;;
31442;SDS011;18065;55.876;9.830;2022-11-21T11:52:20;0.88;;;0.68;;
31442;SDS011;18065;55.876;9.830;2022-11-21T11:54:54;1.65;;;0.60;;
31442;SDS011;18065;55.876;9.830;2022-11-21T11:57:26;0.65;;;0.50;;
31442;SDS011;18065;55.876;9.830;2022-11-21T12:00:02;1.38;;;0.80;;
31442;SDS011;18065;55.876;9.830;2022-11-21T12:02:40;0.82;;;0.63;;
31442;SDS011;18065;55.876;9.830;2022-11-21T12:05:16;0.45;;;0.45;;
31442;SDS011;18065;55.876;9.830;2022-11-21T12:07:57;1.17;;;0.60;;
31442;SDS011;18065;55.876;9.830;2022-11-21T12:10:32;0.80;;;0.60;;
31442;SDS011;18065;55.876;9.830;2022-11-21T12:13:28;0.55;;;0.50;;
31442;SDS011;18065;55.876;9.830;2022-11-21T12:15:58;0.60;;;0.50;;
31442;SDS011;18065;55.876;9.830;2022-11-21T12:18:38;0.50;;;0.50;;
31442;SDS011;18065;55.876;9.830;2022-11-21T12:21:13;0.68;;;0.50;;
31442;SDS011;18065;55.876;9.830;2022-11-21T12:23:44;0.40;;;0.40;;
31442;SDS011;18065;55.876;9.830;2022-11-21T12:26:19;0.40;;;0.40;;
31442;SDS011;18065;55.876;9.830;2022-11-21T12:29:04;0.60;;;0.60;;
31442;SDS011;18065;55.876;9.830;2022-11-21T12:31:46;0.40;;;0.40;;
31442;SDS011;18065;55.876;9.830;2022-11-21T12:34:31;0.57;;;0.50;;
31442;SDS011;18065;55.876;9.830;2022-11-21T12:37:12;0.60;;;0.60;;
31442;SDS011;18065;55.876;9.830;2022-11-21T12:39:57;0.63;;;0.50;;
31442;SDS011;18065;55.876;9.830;2022-11-21T12:42:35;0.63;;;0.47;;
31442;SDS011;18065;55.876;9.830;2022-11-21T12:45:22;1.00;;;0.57;;
31442;SDS011;18065;55.876;9.830;2022-11-21T12:54:27;0.70;;;0.60;;
31442;SDS011;18065;55.876;9.830;2022-11-21T12:57:07;0.55;;;0.55;;
31442;SDS011;18065;55.876;9.830;2022-11-21T12:59:42;0.90;;;0.52;;
31442;SDS011;18065;55.876;9.830;2022-11-21T13:02:27;0.40;;;0.40;;
31442;SDS011;18065;55.876;9.830;2022-11-21T13:05:01;0.65;;;0.50;;
31442;SDS011;18065;55.876;9.830;2022-11-21T13:07:35;0.60;;;0.50;;
31442;SDS011;18065;55.876;9.830;2022-11-21T13:10:09;0.77;;;0.60;;
31442;SDS011;18065;55.876;9.830;2022-11-21T13:12:43;0.70;;;0.50;;
31442;SDS011;18065;55.876;9.830;2022-11-21T13:15:17;0.40;;;0.40;;
31442;SDS011;18065;55.876;9.830;2022-11-21T13:17:52;0.40;;;0.40;;
31442;SDS011;18065;55.876;9.830;2022-11-21T13:20:26;0.45;;;0.43;;
31442;SDS011;18065;55.876;9.830;2022-11-21T13:23:01;0.50;;;0.50;;
31442;SDS011;18065;55.876;9.830;2022-11-21T13:25:35;0.73;;;0.50;;
31442;SDS011;18065;55.876;9.830;2022-11-21T13:33:56;0.60;;;0.60;;
31442;SDS011;18065;55.876;9.830;2022-11-21T13:36:34;0.50;;;0.47;;
31442;SDS011;18065;55.876;9.830;2022-11-21T13:42:12;0.77;;;0.50;;
31442;SDS011;18065;55.876;9.830;2022-11-21T13:44:53;0.57;;;0.43;;
31442;SDS011;18065;55.876;9.830;2022-11-21T13:47:38;0.40;;;0.40;;
31442;SDS011;18065;55.876;9.830;2022-11-21T13:50:23;0.60;;;0.50;;
31442;SDS011;18065;55.876;9.830;2022-11-21T13:53:13;1.65;;;0.50;;
31442;SDS011;18065;55.876;9.830;2022-11-21T13:55:58;0.85;;;0.55;;
31442;SDS011;18065;55.876;9.830;2022-11-21T13:58:44;0.63;;;0.45;;
31442;SDS011;18065;55.876;9.830;2022-11-21T14:01:37;1.02;;;0.57;;
31442;SDS011;18065;55.876;9.830;2022-11-21T14:04:24;0.80;;;0.60;;
31442;SDS011;18065;55.876;9.830;2022-11-21T14:07:15;0.45;;;0.40;;
31442;SDS011;18065;55.876;9.830;2022-11-21T14:09:50;0.40;;;0.40;;
31442;SDS011;18065;55.876;9.830;2022-11-21T14:12:22;0.50;;;0.50;;
31442;SDS011;18065;55.876;9.830;2022-11-21T14:15:07;0.50;;;0.50;;
31442;SDS011;18065;55.876;9.830;2022-11-21T14:17:44;0.60;;;0.60;;
31442;SDS011;18065;55.876;9.830;2022-11-21T14:20:16;0.57;;;0.40;;
31442;SDS011;18065;55.876;9.830;2022-11-21T14:22:55;0.53;;;0.40;;
31442;SDS011;18065;55.876;9.830;2022-11-21T14:25:30;1.05;;;0.50;;
31442;SDS011;18065;55.876;9.830;2022-11-21T14:28:11;0.50;;;0.50;;
31442;SDS011;18065;55.876;9.830;2022-11-21T14:30:43;0.45;;;0.30;;
31442;SDS011;18065;55.876;9.830;2022-11-21T14:33:21;0.40;;;0.40;;
31442;SDS011;18065;55.876;9.830;2022-11-21T14:35:52;0.63;;;0.40;;
31442;SDS011;18065;55.876;9.830;2022-11-21T14:38:24;0.77;;;0.47;;
31442;SDS011;18065;55.876;9.830;2022-11-21T14:44:05;0.50;;;0.43;;
31442;SDS011;18065;55.876;9.830;2022-11-21T14:46:43;0.47;;;0.47;;
31442;SDS011;18065;55.876;9.830;2022-11-21T14:49:19;1.00;;;0.50;;
31442;SDS011;18065;55.876;9.830;2022-11-21T14:51:50;0.85;;;0.40;;
31442;SDS011;18065;55.876;9.830;2022-11-21T14:54:25;2.55;;;0.45;;
31442;SDS011;18065;55.876;9.830;2022-11-21T14:56:57;1.20;;;0.50;;
31442;SDS011;18065;55.876;9.830;2022-11-21T14:59:30;0.80;;;0.57;;
31442;SDS011;18065;55.876;9.830;2022-11-21T15:02:01;2.15;;;0.50;;
31442;SDS011;18065;55.876;9.830;2022-11-21T15:04:34;2.72;;;0.60;;
31442;SDS011;18065;55.876;9.830;2022-11-21T15:07:03;0.70;;;0.40;;
31442;SDS011;18065;55.876;9.830;2022-11-21T15:09:32;1.15;;;0.70;;
31442;SDS011;18065;55.876;9.830;2022-11-21T15:12:01;1.55;;;0.63;;
31442;SDS011;18065;55.876;9.830;2022-11-21T15:14:37;1.75;;;0.63;;
31442;SDS011;18065;55.876;9.830;2022-11-21T15:17:10;1.00;;;0.50;;
31442;SDS011;18065;55.876;9.830;2022-11-21T15:19:42;1.65;;;0.47;;
31442;SDS011;18065;55.876;9.830;2022-11-21T15:22:18;0.70;;;0.50;;
31442;SDS011;18065;55.876;9.830;2022-11-21T15:24:50;1.00;;;0.60;;
31442;SDS011;18065;55.876;9.830;2022-11-21T15:27:33;0.82;;;0.50;;
31442;SDS011;18065;55.876;9.830;2022-11-21T15:30:14;1.27;;;0.60;;
31442;SDS011;18065;55.876;9.830;2022-11-21T15:32:57;0.95;;;0.50;;
31442;SDS011;18065;55.876;9.830;2022-11-21T15:35:41;1.20;;;0.55;;
31442;SDS011;18065;55.876;9.830;2022-11-21T15:38:23;2.17;;;0.68;;
31442;SDS011;18065;55.876;9.830;2022-11-21T15:41:04;1.25;;;0.80;;
31442;SDS011;18065;55.876;9.830;2022-11-21T15:43:51;2.60;;;0.50;;
31442;SDS011;18065;55.876;9.830;2022-11-21T15:46:26;0.57;;;0.47;;